Time;durP1;ratioP1;P1;durP2;ratioP2;P2;SDS_P1;SDS_P2;PMS_P1;PMS_P2;Temp;Humidity;BMP_temperature;BMP_pressure;BME280_temperature;BME280_humidity;BME280_pressure;Samples;Min_cycle;Max_cycle;Signal;HPM_P1;HPM_P2
2021/11/01 00:02:03;;;;;;;12.90;1.42;;;;;;;;;;5089432;28;20153;-54
2021/11/01 00:04:29;;;;;;;11.68;1.30;;;;;;;;;;5095206;28;20028;-53
2021/11/01 00:06:55;;;;;;;5.32;0.95;;;;;;;;;;5095699;28;20172;-53
2021/11/01 00:09:21;;;;;;;16.80;1.52;;;;;;;;;;5093800;28;20024;-53
2021/11/01 00:11:46;;;;;;;14.25;0.70;;;;;;;;;;5094715;28;20028;-54
2021/11/01 00:14:12;;;;;;;4.03;0.45;;;;;;;;;;5095009;28;20161;-54
2021/11/01 00:16:38;;;;;;;7.18;0.63;;;;;;;;;;5091753;28;20482;-52
2021/11/01 00:19:04;;;;;;;3.47;0.55;;;;;;;;;;5094405;28;20113;-53
2021/11/01 00:21:29;;;;;;;7.45;1.00;;;;;;;;;;5095585;28;20391;-53
2021/11/01 00:23:55;;;;;;;19.60;1.50;;;;;;;;;;5093715;28;20026;-53
2021/11/01 00:26:21;;;;;;;11.25;0.82;;;;;;;;;;5094410;28;20123;-54
2021/11/01 00:28:48;;;;;;;9.23;1.30;;;;;;;;;;5091276;28;20059;-53
2021/11/01 00:31:14;;;;;;;6.40;0.30;;;;;;;;;;5090361;28;20024;-52
2021/11/01 00:33:40;;;;;;;3.17;0.88;;;;;;;;;;5093217;28;20503;-50
2021/11/01 00:36:06;;;;;;;11.15;1.10;;;;;;;;;;5097315;28;20053;-51
2021/11/01 00:38:33;;;;;;;9.85;1.23;;;;;;;;;;5098847;28;20024;-51
2021/11/01 00:40:59;;;;;;;6.97;0.77;;;;;;;;;;5095829;28;20062;-51
2021/11/01 00:43:25;;;;;;;9.63;1.02;;;;;;;;;;5096966;28;20481;-53
2021/11/01 00:45:51;;;;;;;7.80;0.68;;;;;;;;;;5103163;28;20423;-54
2021/11/01 00:48:17;;;;;;;2.08;0.40;;;;;;;;;;5093614;28;20367;-53
2021/11/01 00:50:43;;;;;;;4.55;0.77;;;;;;;;;;5099038;28;20042;-54
2021/11/01 00:53:09;;;;;;;10.18;0.73;;;;;;;;;;5097523;28;20244;-53
2021/11/01 00:55:47;;;;;;;4.22;0.40;;;;;;;;;;5093242;28;20208;-55
2021/11/01 00:58:13;;;;;;;7.20;0.60;;;;;;;;;;5093474;28;20031;-54
2021/11/01 01:00:40;;;;;;;11.23;0.93;;;;;;;;;;5091036;28;20063;-53
2021/11/01 01:03:06;;;;;;;11.57;0.70;;;;;;;;;;5091749;28;20035;-53
2021/11/01 01:05:32;;;;;;;7.68;0.85;;;;;;;;;;5089055;28;20058;-54
2021/11/01 01:07:58;;;;;;;10.57;1.08;;;;;;;;;;5098215;28;20080;-54
2021/11/01 01:10:23;;;;;;;10.07;1.30;;;;;;;;;;5091390;28;20433;-54
2021/11/01 01:12:49;;;;;;;5.82;0.82;;;;;;;;;;5097997;28;20035;-53
2021/11/01 01:15:20;;;;;;;8.75;0.98;;;;;;;;;;5096871;28;20027;-53
2021/11/01 01:17:47;;;;;;;7.07;1.25;;;;;;;;;;5092257;28;20024;-52
2021/11/01 01:20:14;;;;;;;15.10;1.20;;;;;;;;;;5099125;28;20410;-54
2021/11/01 01:22:42;;;;;;;6.60;1.17;;;;;;;;;;5091771;28;20027;-52
2021/11/01 01:25:15;;;;;;;5.20;0.60;;;;;;;;;;5096881;28;20032;-55
2021/11/01 01:27:42;;;;;;;5.05;1.13;;;;;;;;;;5089833;28;20399;-54
2021/11/01 01:30:09;;;;;;;3.00;0.50;;;;;;;;;;5091772;28;20085;-54
2021/11/01 01:32:35;;;;;;;15.02;0.80;;;;;;;;;;5096433;28;20036;-53
2021/11/01 01:35:01;;;;;;;16.75;1.67;;;;;;;;;;5096591;28;20110;-53
2021/11/01 01:37:26;;;;;;;13.75;1.83;;;;;;;;;;5080501;28;20547;-54
2021/11/01 01:39:52;;;;;;;10.10;0.43;;;;;;;;;;5097432;28;20461;-55
2021/11/01 01:42:17;;;;;;;6.35;0.60;;;;;;;;;;5091105;28;20254;-55
2021/11/01 01:44:43;;;;;;;6.05;0.50;;;;;;;;;;5079999;28;20067;-53
2021/11/01 01:47:10;;;;;;;11.40;0.98;;;;;;;;;;5096765;28;20036;-53
2021/11/01 01:49:37;;;;;;;7.53;0.55;;;;;;;;;;5094510;28;20490;-54
2021/11/01 01:52:06;;;;;;;10.02;0.63;;;;;;;;;;5095317;28;20286;-55
2021/11/01 01:54:32;;;;;;;4.65;0.93;;;;;;;;;;5097923;28;20028;-54
2021/11/01 01:56:57;;;;;;;17.10;0.95;;;;;;;;;;5092167;28;20046;-56
2021/11/01 01:59:23;;;;;;;2.38;0.47;;;;;;;;;;5093547;28;20427;-55
2021/11/01 02:01:50;;;;;;;6.95;0.30;;;;;;;;;;5094431;28;20494;-54
2021/11/01 02:04:21;;;;;;;9.27;0.57;;;;;;;;;;5092991;28;20028;-55
2021/11/01 02:07:12;;;;;;;11.35;1.10;;;;;;;;;;5099910;28;20047;-55
2021/11/01 02:09:59;;;;;;;6.03;0.65;;;;;;;;;;5094556;28;20040;-54
2021/11/01 02:12:45;;;;;;;12.45;0.70;;;;;;;;;;5095874;28;20070;-53
2021/11/01 02:15:20;;;;;;;14.90;1.13;;;;;;;;;;5094338;28;20058;-53
2021/11/01 02:17:48;;;;;;;9.75;0.77;;;;;;;;;;5097026;28;20541;-55
2021/11/01 02:20:38;;;;;;;4.80;0.60;;;;;;;;;;5099244;28;20040;-56
2021/11/01 02:23:23;;;;;;;10.27;1.02;;;;;;;;;;5096022;28;20027;-55
2021/11/01 02:25:53;;;;;;;8.20;1.17;;;;;;;;;;5090320;28;20039;-54
2021/11/01 02:28:21;;;;;;;10.07;1.05;;;;;;;;;;5101133;28;20267;-55
2021/11/01 02:30:49;;;;;;;6.57;0.75;;;;;;;;;;5092086;28;20028;-56
2021/11/01 02:33:16;;;;;;;6.57;0.75;;;;;;;;;;5095411;28;20051;-54
2021/11/01 02:35:43;;;;;;;13.57;0.90;;;;;;;;;;5095079;28;20016;-55
2021/11/01 02:38:12;;;;;;;10.90;0.90;;;;;;;;;;5099327;28;20402;-54
2021/11/01 02:40:39;;;;;;;15.18;1.08;;;;;;;;;;5092018;28;20020;-55
2021/11/01 02:43:04;;;;;;;1.38;0.55;;;;;;;;;;5092049;28;20386;-53
2021/11/01 02:45:30;;;;;;;7.47;1.02;;;;;;;;;;5091468;28;20208;-54
2021/11/01 02:47:55;;;;;;;12.48;1.15;;;;;;;;;;5093957;28;20035;-55
2021/11/01 02:50:22;;;;;;;8.43;1.17;;;;;;;;;;5094578;28;20033;-55
2021/11/01 02:52:48;;;;;;;11.93;0.70;;;;;;;;;;5087801;28;20037;-55
2021/11/01 02:55:15;;;;;;;13.60;0.70;;;;;;;;;;5095680;28;20059;-56
2021/11/01 02:57:42;;;;;;;14.40;1.17;;;;;;;;;;5095856;28;20024;-56
2021/11/01 03:00:10;;;;;;;15.55;0.90;;;;;;;;;;5090083;28;20079;-56
2021/11/01 03:02:36;;;;;;;16.52;0.63;;;;;;;;;;5089460;28;20496;-55
2021/11/01 03:05:04;;;;;;;15.82;1.70;;;;;;;;;;5072668;28;20028;-54
2021/11/01 03:07:31;;;;;;;16.05;1.42;;;;;;;;;;5094957;28;20505;-54
2021/11/01 03:09:57;;;;;;;15.38;1.63;;;;;;;;;;5093036;28;20493;-54
2021/11/01 03:12:25;;;;;;;3.90;1.20;;;;;;;;;;5094564;28;20475;-55
2021/11/01 03:14:56;;;;;;;8.32;1.55;;;;;;;;;;5090005;28;20036;-56
2021/11/01 03:17:27;;;;;;;12.18;1.27;;;;;;;;;;5075679;28;20276;-55
2021/11/01 03:20:08;;;;;;;14.05;0.73;;;;;;;;;;5090725;28;20024;-56
2021/11/01 03:22:47;;;;;;;18.13;2.20;;;;;;;;;;5089128;28;20452;-56
2021/11/01 03:25:23;;;;;;;7.78;1.40;;;;;;;;;;5095793;27;20031;-56
2021/11/01 03:27:52;;;;;;;10.25;1.05;;;;;;;;;;5094568;28;20512;-55
2021/11/01 03:30:19;;;;;;;9.63;0.70;;;;;;;;;;5092021;28;20262;-55
2021/11/01 03:32:46;;;;;;;12.18;0.60;;;;;;;;;;5073367;28;20375;-54
2021/11/01 03:35:12;;;;;;;11.57;1.63;;;;;;;;;;5097431;28;20039;-55
2021/11/01 03:37:40;;;;;;;15.18;1.27;;;;;;;;;;5091347;28;20019;-56
2021/11/01 03:40:07;;;;;;;5.43;1.38;;;;;;;;;;5093810;28;20031;-55
2021/11/01 03:42:33;;;;;;;11.95;1.42;;;;;;;;;;5095677;28;20116;-56
2021/11/01 03:45:03;;;;;;;9.57;0.93;;;;;;;;;;5074242;28;20577;-56
2021/11/01 03:47:32;;;;;;;8.80;0.57;;;;;;;;;;5091871;28;20101;-56
2021/11/01 03:50:02;;;;;;;13.77;0.70;;;;;;;;;;5095062;28;20019;-56
2021/11/01 03:52:33;;;;;;;12.10;0.75;;;;;;;;;;5093859;28;20130;-54
2021/11/01 03:54:59;;;;;;;12.00;1.13;;;;;;;;;;5092141;28;20039;-57
2021/11/01 03:57:25;;;;;;;14.55;0.73;;;;;;;;;;5092341;28;20037;-56
2021/11/01 03:59:52;;;;;;;11.98;0.73;;;;;;;;;;5093543;28;20044;-56
2021/11/01 04:02:20;;;;;;;7.72;0.73;;;;;;;;;;5091881;28;20031;-55
2021/11/01 04:04:51;;;;;;;18.75;0.95;;;;;;;;;;5094614;28;20114;-56
2021/11/01 04:07:18;;;;;;;14.83;0.90;;;;;;;;;;5097861;28;20040;-56
2021/11/01 04:09:44;;;;;;;10.32;0.70;;;;;;;;;;5096488;28;20497;-56
2021/11/01 04:12:10;;;;;;;9.98;0.65;;;;;;;;;;5096539;28;20462;-56
2021/11/01 04:14:41;;;;;;;17.63;1.17;;;;;;;;;;5095672;28;20035;-56
2021/11/01 04:17:26;;;;;;;14.30;1.15;;;;;;;;;;5099315;28;20048;-56
2021/11/01 04:20:00;;;;;;;5.88;0.43;;;;;;;;;;5093097;28;20109;-56
2021/11/01 04:22:29;;;;;;;15.25;0.98;;;;;;;;;;5095487;28;20035;-57
2021/11/01 04:24:54;;;;;;;11.25;0.55;;;;;;;;;;5097672;28;20031;-57
2021/11/01 04:27:20;;;;;;;5.45;0.43;;;;;;;;;;5095115;28;20028;-56
2021/11/01 04:29:45;;;;;;;10.60;0.60;;;;;;;;;;5097476;28;20027;-58
2021/11/01 04:32:56;;;;;;;10.23;0.93;;;;;;;;;;5098804;28;20111;-57
2021/11/01 04:35:04;;;;;;;5.28;0.35;;;;;;;;;;5096835;28;20051;-56
2021/11/01 04:37:31;;;;;;;12.40;0.35;;;;;;;;;;5097616;28;20039;-57
2021/11/01 04:53:08;;;;;;;7.30;0.63;;;;;;;;;;5095505;28;20035;-57
2021/11/01 04:55:34;;;;;;;7.68;0.88;;;;;;;;;;5093853;28;20031;-57
2021/11/01 04:58:01;;;;;;;14.57;1.13;;;;;;;;;;5094842;28;20032;-57
2021/11/01 05:00:27;;;;;;;11.45;0.40;;;;;;;;;;5096224;28;20047;-57
2021/11/01 05:03:00;;;;;;;8.85;0.77;;;;;;;;;;5099107;28;20024;-57
2021/11/01 05:05:27;;;;;;;8.57;0.90;;;;;;;;;;5094850;28;20051;-56
2021/11/01 05:07:53;;;;;;;5.53;0.40;;;;;;;;;;5096396;28;20470;-57
2021/11/01 05:10:29;;;;;;;14.57;0.95;;;;;;;;;;5097440;28;20386;-57
2021/11/01 05:12:56;;;;;;;4.43;0.20;;;;;;;;;;5095436;28;20027;-56
2021/11/01 05:15:38;;;;;;;8.07;0.52;;;;;;;;;;5097791;28;20501;-57
2021/11/01 05:18:24;;;;;;;16.77;1.67;;;;;;;;;;5089814;28;20074;-57
2021/11/01 05:21:07;;;;;;;12.50;1.50;;;;;;;;;;5084725;28;20031;-57
2021/11/01 05:23:37;;;;;;;7.53;0.88;;;;;;;;;;5093801;28;20038;-57
2021/11/01 05:26:06;;;;;;;7.97;1.27;;;;;;;;;;5080911;28;20105;-57
2021/11/01 05:28:47;;;;;;;14.00;0.75;;;;;;;;;;5096725;28;20028;-57
2021/11/01 05:31:19;;;;;;;7.57;1.00;;;;;;;;;;5092795;28;20274;-57
2021/11/01 05:36:22;;;;;;;10.75;1.77;;;;;;;;;;5096404;28;20097;-55
2021/11/01 05:38:49;;;;;;;11.50;0.82;;;;;;;;;;5079942;28;20494;-55
2021/11/01 05:41:15;;;;;;;8.18;0.73;;;;;;;;;;5101037;28;20110;-55
2021/11/01 05:43:41;;;;;;;11.65;0.73;;;;;;;;;;5096461;28;20024;-56
2021/11/01 05:46:06;;;;;;;3.80;0.80;;;;;;;;;;5097184;28;20032;-56
2021/11/01 05:48:32;;;;;;;10.52;1.20;;;;;;;;;;5094816;28;20020;-56
2021/11/01 05:50:57;;;;;;;5.53;1.08;;;;;;;;;;5097645;28;20039;-57
2021/11/01 05:53:27;;;;;;;7.38;0.93;;;;;;;;;;5094777;28;20035;-56
2021/11/01 05:58:42;;;;;;;10.10;1.13;;;;;;;;;;5094886;28;20583;-55
2021/11/01 06:04:03;;;;;;;6.47;1.00;;;;;;;;;;5098614;28;20064;-56
2021/11/01 06:09:32;;;;;;;6.75;0.70;;;;;;;;;;5094711;28;20042;-57
2021/11/01 06:14:42;;;;;;;3.55;0.75;;;;;;;;;;5100893;28;20512;-56
2021/11/01 06:17:08;;;;;;;7.25;0.55;;;;;;;;;;5098629;28;20737;-57
2021/11/01 06:19:33;;;;;;;5.43;1.02;;;;;;;;;;5095447;28;20032;-57
2021/11/01 06:21:59;;;;;;;4.18;1.40;;;;;;;;;;5098923;28;20039;-56
2021/11/01 06:27:10;;;;;;;5.68;1.90;;;;;;;;;;5092579;28;20042;-56
2021/11/01 06:29:50;;;;;;;10.77;0.98;;;;;;;;;;5097896;28;20027;-57
2021/11/01 06:33:13;;;;;;;2.90;0.45;;;;;;;;;;5095531;28;20070;-56
2021/11/01 06:51:43;;;;;;;3.70;0.50;;;;;;;;;;5088435;28;20034;-57
2021/11/01 07:14:09;;;;;;;8.70;0.60;;;;;;;;;;5092987;27;20083;-55
2021/11/01 07:15:54;;;;;;;5.88;0.50;;;;;;;;;;5090760;28;20047;-55
2021/11/01 07:18:29;;;;;;;11.70;1.17;;;;;;;;;;5094879;28;20040;-56
2021/11/01 07:21:11;;;;;;;3.15;0.43;;;;;;;;;;5088144;28;20324;-56
2021/11/01 08:23:24;;;;;;;9.75;0.75;;;;;;;;;;5097915;28;20055;-55
2021/11/01 08:26:42;;;;;;;3.92;0.50;;;;;;;;;;5100925;28;20588;-55
2021/11/01 08:39:24;;;;;;;1.45;0.38;;;;;;;;;;5098977;28;20237;-55
2021/11/01 09:03:24;;;;;;;13.48;1.33;;;;;;;;;;5100347;28;20453;-56
2021/11/01 09:06:07;;;;;;;1.27;0.52;;;;;;;;;;5104883;28;20401;-55
2021/11/01 09:21:34;;;;;;;2.00;0.63;;;;;;;;;;5102327;28;20494;-56
2021/11/01 09:24:32;;;;;;;3.85;0.45;;;;;;;;;;5095560;28;20108;-56
2021/11/01 09:27:01;;;;;;;1.98;0.50;;;;;;;;;;5097262;28;20024;-56
2021/11/01 09:42:47;;;;;;;4.80;0.90;;;;;;;;;;5093755;28;20031;-56
2021/11/01 09:45:14;;;;;;;9.93;1.52;;;;;;;;;;5085905;28;20024;-56
2021/11/01 09:47:42;;;;;;;7.28;1.45;;;;;;;;;;5104959;28;20075;-56
2021/11/01 09:50:09;;;;;;;5.57;0.85;;;;;;;;;;5093435;28;20402;-55
2021/11/01 09:52:35;;;;;;;3.75;1.00;;;;;;;;;;5095050;28;20173;-56
2021/11/01 09:55:15;;;;;;;7.72;1.23;;;;;;;;;;5097381;28;20163;-57
2021/11/01 09:59:10;;;;;;;3.08;1.25;;;;;;;;;;5097484;28;20035;-55
2021/11/01 10:00:26;;;;;;;4.95;1.60;;;;;;;;;;5091675;28;20644;-56
2021/11/01 10:02:52;;;;;;;8.02;1.30;;;;;;;;;;5080075;28;20130;-56
2021/11/01 10:05:26;;;;;;;6.05;0.90;;;;;;;;;;5084076;28;20070;-56
2021/11/01 10:07:51;;;;;;;10.73;1.20;;;;;;;;;;5096305;28;20027;-56
2021/11/01 10:10:17;;;;;;;7.97;1.27;;;;;;;;;;5102667;28;20473;-56
2021/11/01 10:12:47;;;;;;;5.72;1.13;;;;;;;;;;5092107;27;20024;-56
2021/11/01 10:18:08;;;;;;;3.47;1.55;;;;;;;;;;5102043;28;20123;-56
2021/11/01 10:20:39;;;;;;;8.05;1.48;;;;;;;;;;5102384;28;20098;-56
2021/11/01 10:23:22;;;;;;;2.17;0.85;;;;;;;;;;5095096;28;20031;-56
2021/11/01 10:25:49;;;;;;;4.25;0.70;;;;;;;;;;5095416;28;20106;-56
2021/11/01 10:28:15;;;;;;;2.60;0.90;;;;;;;;;;5095649;28;20533;-56
2021/11/01 10:30:40;;;;;;;8.75;0.80;;;;;;;;;;5103041;28;20023;-56
2021/11/01 10:33:11;;;;;;;7.90;0.93;;;;;;;;;;5092716;28;20080;-56
2021/11/01 10:35:43;;;;;;;3.83;0.50;;;;;;;;;;5094061;28;20036;-57
2021/11/01 10:46:52;;;;;;;6.70;0.60;;;;;;;;;;5095770;28;20043;-57
2021/11/01 11:11:33;;;;;;;11.65;1.00;;;;;;;;;;5087287;28;20034;-56
2021/11/01 11:14:07;;;;;;;2.70;0.70;;;;;;;;;;5096928;28;20031;-57
2021/11/01 11:22:02;;;;;;;3.67;0.77;;;;;;;;;;5095427;28;20028;-56
2021/11/01 11:40:42;;;;;;;8.30;1.05;;;;;;;;;;5097123;28;20115;-56
2021/11/01 11:49:23;;;;;;;4.57;0.60;;;;;;;;;;5093658;28;20046;-56
2021/11/01 11:52:00;;;;;;;5.00;0.95;;;;;;;;;;5096242;28;20032;-56
2021/11/01 11:54:46;;;;;;;4.00;0.88;;;;;;;;;;5095249;28;20069;-56
2021/11/01 11:57:33;;;;;;;6.40;0.93;;;;;;;;;;5099813;28;20027;-56
2021/11/01 12:00:00;;;;;;;9.95;0.77;;;;;;;;;;5101541;28;20114;-56
2021/11/01 12:02:39;;;;;;;6.95;1.08;;;;;;;;;;5093694;28;20405;-56
2021/11/01 12:05:10;;;;;;;5.90;0.70;;;;;;;;;;5095497;28;20096;-56
2021/11/01 12:07:52;;;;;;;2.13;0.63;;;;;;;;;;5097281;28;20016;-56
2021/11/01 12:14:01;;;;;;;2.75;0.60;;;;;;;;;;5097296;28;20567;-56
2021/11/01 12:19:05;;;;;;;7.93;1.23;;;;;;;;;;5094380;28;20113;-56
2021/11/01 12:21:38;;;;;;;4.57;0.70;;;;;;;;;;5093056;28;20059;-57
2021/11/01 12:24:10;;;;;;;;;;;;;;;;;;5100371;28;20039;-56
2021/11/01 12:26:38;;;;;;;1.92;0.70;;;;;;;;;;5099789;28;19934;-56
2021/11/01 12:29:09;;;;;;;9.52;1.50;;;;;;;;;;5096424;28;20457;-54
2021/11/01 12:31:36;;;;;;;7.15;0.88;;;;;;;;;;5077364;28;20474;-54
2021/11/01 12:36:50;;;;;;;4.43;0.70;;;;;;;;;;5096333;28;20020;-56
2021/11/01 12:39:25;;;;;;;5.78;1.05;;;;;;;;;;5106461;28;20036;-55
2021/11/01 12:58:29;;;;;;;2.58;0.90;;;;;;;;;;5094289;28;20031;-54
2021/11/01 13:00:55;;;;;;;11.25;1.48;;;;;;;;;;5092779;28;20044;-55
2021/11/01 13:03:22;;;;;;;4.07;0.68;;;;;;;;;;5096430;28;20399;-53
2021/11/01 13:06:00;;;;;;;6.72;1.42;;;;;;;;;;5097538;28;20023;-55
2021/11/01 13:08:32;;;;;;;10.23;1.65;;;;;;;;;;5098477;28;20071;-53
2021/11/01 13:11:02;;;;;;;4.70;1.20;;;;;;;;;;5096314;28;20450;-55
2021/11/01 13:19:14;;;;;;;8.35;1.13;;;;;;;;;;5043451;28;20339;-56
2021/11/01 13:24:15;;;;;;;5.80;1.02;;;;;;;;;;5093525;28;20565;-55
2021/11/01 13:40:14;;;;;;;5.25;0.82;;;;;;;;;;5094831;28;20035;-54
2021/11/01 13:42:52;;;;;;;11.65;2.88;;;;;;;;;;5097610;27;20104;-53
2021/11/01 13:45:20;;;;;;;1.90;0.47;;;;;;;;;;5089087;28;20476;-54
2021/11/01 13:47:56;;;;;;;4.07;1.05;;;;;;;;;;5091039;28;20044;-54
2021/11/01 13:50:25;;;;;;;2.75;0.75;;;;;;;;;;5094999;28;20020;-54
2021/11/01 13:53:15;;;;;;;8.73;2.38;;;;;;;;;;5092652;28;20024;-54
2021/11/01 13:55:49;;;;;;;5.82;0.90;;;;;;;;;;5100840;28;20051;-54
2021/11/01 14:12:14;;;;;;;5.70;2.03;;;;;;;;;;5084270;28;20062;-55
2021/11/01 14:28:02;;;;;;;3.55;0.73;;;;;;;;;;5092474;28;20046;-54
2021/11/01 14:36:16;;;;;;;5.00;0.98;;;;;;;;;;5100650;28;20084;-54
2021/11/01 15:00:44;;;;;;;6.70;0.85;;;;;;;;;;5095468;28;20052;-54
2021/11/01 15:16:59;;;;;;;9.90;1.20;;;;;;;;;;5096871;28;20076;-56
2021/11/01 15:27:19;;;;;;;7.55;0.90;;;;;;;;;;5081725;28;20034;-55
2021/11/01 15:38:11;;;;;;;5.07;1.58;;;;;;;;;;5092558;28;20030;-54
2021/11/01 16:18:34;;;;;;;8.07;1.75;;;;;;;;;;5101146;28;20028;-54
2021/11/01 16:21:00;;;;;;;7.95;1.58;;;;;;;;;;5094332;28;20043;-53
2021/11/01 16:25:56;;;;;;;2.55;0.75;;;;;;;;;;5096764;28;20107;-52
2021/11/01 16:28:25;;;;;;;7.45;1.23;;;;;;;;;;5091827;28;20458;-51
2021/11/01 16:31:17;;;;;;;9.15;1.40;;;;;;;;;;5097620;28;20390;-54
2021/11/01 16:33:44;;;;;;;5.50;1.38;;;;;;;;;;5090139;28;20036;-50
2021/11/01 16:36:17;;;;;;;7.38;1.63;;;;;;;;;;5093103;28;20035;-53
2021/11/01 16:38:51;;;;;;;7.93;1.88;;;;;;;;;;5096326;28;20036;-53
2021/11/01 16:41:22;;;;;;;10.02;1.75;;;;;;;;;;5096219;28;20031;-54
2021/11/01 16:43:49;;;;;;;5.88;2.35;;;;;;;;;;5093293;28;20027;-54
2021/11/01 16:46:15;;;;;;;2.97;1.05;;;;;;;;;;5097940;28;20047;-55
2021/11/01 16:48:43;;;;;;;3.25;1.60;;;;;;;;;;5097703;28;20032;-55
2021/11/01 16:51:10;;;;;;;3.53;1.40;;;;;;;;;;5085103;28;20034;-55
2021/11/01 16:53:39;;;;;;;5.13;1.90;;;;;;;;;;5095885;28;20031;-54
2021/11/01 16:58:54;;;;;;;10.75;4.03;;;;;;;;;;5098115;28;20027;-54
2021/11/01 17:01:25;;;;;;;17.38;6.57;;;;;;;;;;5100160;28;20052;-54
2021/11/01 17:04:00;;;;;;;6.72;2.85;;;;;;;;;;5098381;28;20031;-53
2021/11/01 17:26:04;;;;;;;10.98;2.38;;;;;;;;;;5099169;28;20098;-54
2021/11/01 17:29:21;;;;;;;8.65;3.85;;;;;;;;;;5100634;28;20036;-53
2021/11/01 17:34:40;;;;;;;8.35;3.47;;;;;;;;;;5099682;28;20126;-54
2021/11/01 18:41:10;;;;;;;11.75;3.67;;;;;;;;;;5097437;28;20038;-52
2021/11/01 18:46:30;;;;;;;10.77;3.90;;;;;;;;;;5093764;28;20051;-52
2021/11/01 18:51:54;;;;;;;11.95;4.30;;;;;;;;;;5089704;28;20038;-50
2021/11/01 18:54:24;;;;;;;7.82;3.78;;;;;;;;;;5097908;28;20024;-53
2021/11/01 18:56:54;;;;;;;12.13;4.28;;;;;;;;;;5098443;28;20031;-53
2021/11/01 18:59:22;;;;;;;11.27;4.78;;;;;;;;;;5098963;28;20043;-52
2021/11/01 19:04:54;;;;;;;12.68;4.47;;;;;;;;;;5090288;28;20067;-50
2021/11/01 19:10:04;;;;;;;16.52;4.25;;;;;;;;;;5094400;28;20035;-50
2021/11/01 20:05:07;;;;;;;14.18;3.72;;;;;;;;;;5062725;28;20436;-49
2021/11/01 21:24:47;;;;;;;10.40;3.00;;;;;;;;;;5063398;28;20098;-53
2021/11/01 21:27:12;;;;;;;11.20;2.90;;;;;;;;;;5058375;28;20047;-50
2021/11/01 21:29:38;;;;;;;7.15;2.35;;;;;;;;;;5057986;28;20032;-51
2021/11/01 21:32:06;;;;;;;9.13;2.85;;;;;;;;;;5062480;28;20058;-49
2021/11/01 21:36:58;;;;;;;10.25;2.83;;;;;;;;;;5061093;28;20368;-48
2021/11/01 21:39:24;;;;;;;7.60;2.30;;;;;;;;;;5063866;28;20039;-48
2021/11/01 21:41:50;;;;;;;10.02;2.70;;;;;;;;;;5063949;28;20092;-50
2021/11/01 21:44:15;;;;;;;12.95;2.92;;;;;;;;;;5062331;28;20028;-53
2021/11/01 21:46:41;;;;;;;13.90;3.45;;;;;;;;;;5060943;28;20128;-53
2021/11/01 21:49:06;;;;;;;15.57;3.78;;;;;;;;;;5057879;28;20036;-49
2021/11/01 21:51:37;;;;;;;15.70;4.85;;;;;;;;;;5062120;28;20024;-49
2021/11/01 21:54:17;;;;;;;13.90;3.80;;;;;;;;;;5055635;28;20029;-49
2021/11/01 21:56:47;;;;;;;15.20;4.05;;;;;;;;;;5054379;28;20490;-49
2021/11/01 22:16:42;;;;;;;7.68;2.10;;;;;;;;;;5097785;28;20037;-51
2021/11/01 22:21:25;;;;;;;10.60;1.95;;;;;;;;;;5089658;28;20478;-52
2021/11/01 22:24:15;;;;;;;9.43;2.40;;;;;;;;;;5097074;28;20039;-52
2021/11/01 22:39:46;;;;;;;6.75;2.63;;;;;;;;;;5100189;28;20121;-51
2021/11/01 22:55:55;;;;;;;4.53;1.90;;;;;;;;;;5003219;28;20044;-50
2021/11/01 22:58:22;;;;;;;4.38;2.13;;;;;;;;;;5006213;28;20073;-49
2021/11/01 23:00:54;;;;;;;6.63;2.28;;;;;;;;;;5062167;28;20047;-51
2021/11/01 23:03:39;;;;;;;7.63;2.38;;;;;;;;;;5097595;28;20039;-51
2021/11/01 23:33:11;;;;;;;11.63;2.88;;;;;;;;;;5093069;28;20089;-49
2021/11/01 23:35:37;;;;;;;9.50;2.55;;;;;;;;;;5093552;28;20034;-48
2021/11/01 23:38:03;;;;;;;11.23;3.15;;;;;;;;;;5090288;28;20028;-51
2021/11/01 23:40:28;;;;;;;10.75;2.90;;;;;;;;;;5092797;28;20042;-47
2021/11/01 23:42:54;;;;;;;10.00;2.67;;;;;;;;;;5092165;28;20353;-47
2021/11/01 23:45:19;;;;;;;5.88;2.08;;;;;;;;;;5091053;28;20050;-51
2021/11/01 23:47:45;;;;;;;7.65;2.13;;;;;;;;;;5094407;28;20399;-48
2021/11/01 23:50:10;;;;;;;7.22;2.55;;;;;;;;;;5091587;28;20474;-51
2021/11/01 23:52:56;;;;;;;6.47;2.35;;;;;;;;;;5096020;28;20072;-51
2021/11/01 23:55:22;;;;;;;9.00;2.72;;;;;;;;;;5092628;28;20071;-52
2021/11/01 23:57:47;;;;;;;8.45;2.30;;;;;;;;;;5098541;28;20099;-48
